sensor_id;sensor_type;location;lat;lon;timestamp;P1;durP1;ratioP1;P2;durP2;ratioP2
32138;SDS011;18644;48.700;9.210;2022-12-04T00:01:14;27.27;;;13.23;;
32138;SDS011;18644;48.700;9.210;2022-12-04T00:03:44;22.20;;;11.77;;
32138;SDS011;18644;48.700;9.210;2022-12-04T00:06:12;22.85;;;11.65;;
32138;SDS011;18644;48.700;9.210;2022-12-04T00:08:44;22.85;;;12.23;;
32138;SDS011;18644;48.700;9.210;2022-12-04T00:11:13;25.45;;;13.18;;
32138;SDS011;18644;48.700;9.210;2022-12-04T00:13:44;23.10;;;12.07;;
32138;SDS011;18644;48.700;9.210;2022-12-04T00:16:21;22.06;;;11.59;;
32138;SDS011;18644;48.700;9.210;2022-12-04T00:18:50;24.83;;;12.48;;
32138;SDS011;18644;48.700;9.210;2022-12-04T00:21:18;24.55;;;13.02;;
32138;SDS011;18644;48.700;9.210;2022-12-04T00:23:48;23.02;;;12.20;;
32138;SDS011;18644;48.700;9.210;2022-12-04T00:26:16;19.95;;;10.10;;
32138;SDS011;18644;48.700;9.210;2022-12-04T00:28:46;20.08;;;11.52;;
32138;SDS011;18644;48.700;9.210;2022-12-04T00:31:14;23.30;;;12.60;;
32138;SDS011;18644;48.700;9.210;2022-12-04T00:33:46;22.80;;;12.65;;
32138;SDS011;18644;48.700;9.210;2022-12-04T00:36:13;21.67;;;11.70;;
32138;SDS011;18644;48.700;9.210;2022-12-04T00:38:42;19.42;;;11.55;;
32138;SDS011;18644;48.700;9.210;2022-12-04T00:41:11;20.80;;;11.07;;
32138;SDS011;18644;48.700;9.210;2022-12-04T00:43:40;22.52;;;12.27;;
32138;SDS011;18644;48.700;9.210;2022-12-04T00:46:07;22.48;;;11.55;;
32138;SDS011;18644;48.700;9.210;2022-12-04T00:48:35;24.10;;;11.93;;
32138;SDS011;18644;48.700;9.210;2022-12-04T00:51:02;21.38;;;11.20;;
32138;SDS011;18644;48.700;9.210;2022-12-04T00:53:30;18.08;;;11.18;;
32138;SDS011;18644;48.700;9.210;2022-12-04T00:55:57;21.27;;;11.60;;
32138;SDS011;18644;48.700;9.210;2022-12-04T00:58:25;20.35;;;10.60;;
32138;SDS011;18644;48.700;9.210;2022-12-04T01:00:59;18.85;;;10.30;;
32138;SDS011;18644;48.700;9.210;2022-12-04T01:03:28;18.63;;;11.00;;
32138;SDS011;18644;48.700;9.210;2022-12-04T01:05:55;20.40;;;11.20;;
32138;SDS011;18644;48.700;9.210;2022-12-04T01:08:22;19.10;;;11.18;;
32138;SDS011;18644;48.700;9.210;2022-12-04T01:10:50;17.65;;;10.68;;
32138;SDS011;18644;48.700;9.210;2022-12-04T01:13:17;17.75;;;10.20;;
32138;SDS011;18644;48.700;9.210;2022-12-04T01:15:45;17.65;;;10.68;;
32138;SDS011;18644;48.700;9.210;2022-12-04T01:18:13;18.80;;;10.65;;
32138;SDS011;18644;48.700;9.210;2022-12-04T01:20:45;21.92;;;11.52;;
32138;SDS011;18644;48.700;9.210;2022-12-04T01:23:13;18.70;;;10.57;;
32138;SDS011;18644;48.700;9.210;2022-12-04T01:25:48;16.77;;;9.65;;
32138;SDS011;18644;48.700;9.210;2022-12-04T01:28:16;18.75;;;10.68;;
32138;SDS011;18644;48.700;9.210;2022-12-04T01:30:43;18.48;;;10.82;;
32138;SDS011;18644;48.700;9.210;2022-12-04T01:33:22;18.52;;;10.02;;
32138;SDS011;18644;48.700;9.210;2022-12-04T01:35:51;17.90;;;10.52;;
32138;SDS011;18644;48.700;9.210;2022-12-04T01:38:18;20.48;;;12.07;;
32138;SDS011;18644;48.700;9.210;2022-12-04T01:40:46;17.27;;;10.63;;
32138;SDS011;18644;48.700;9.210;2022-12-04T01:43:14;18.30;;;10.85;;
32138;SDS011;18644;48.700;9.210;2022-12-04T01:45:42;19.27;;;11.52;;
32138;SDS011;18644;48.700;9.210;2022-12-04T01:48:17;18.23;;;10.43;;
32138;SDS011;18644;48.700;9.210;2022-12-04T01:50:50;18.95;;;10.85;;
32138;SDS011;18644;48.700;9.210;2022-12-04T01:53:21;18.90;;;10.68;;
32138;SDS011;18644;48.700;9.210;2022-12-04T01:55:48;18.60;;;11.00;;
32138;SDS011;18644;48.700;9.210;2022-12-04T01:58:15;20.92;;;12.23;;
32138;SDS011;18644;48.700;9.210;2022-12-04T02:00:48;21.17;;;11.80;;
32138;SDS011;18644;48.700;9.210;2022-12-04T02:03:21;17.77;;;10.55;;
32138;SDS011;18644;48.700;9.210;2022-12-04T02:05:48;20.15;;;11.77;;
32138;SDS011;18644;48.700;9.210;2022-12-04T02:08:15;20.83;;;12.50;;
32138;SDS011;18644;48.700;9.210;2022-12-04T02:10:45;19.60;;;11.82;;
32138;SDS011;18644;48.700;9.210;2022-12-04T02:13:25;19.63;;;11.25;;
32138;SDS011;18644;48.700;9.210;2022-12-04T02:16:04;20.27;;;10.45;;
32138;SDS011;18644;48.700;9.210;2022-12-04T02:18:44;22.17;;;11.38;;
32138;SDS011;18644;48.700;9.210;2022-12-04T02:21:27;17.92;;;11.15;;
32138;SDS011;18644;48.700;9.210;2022-12-04T02:24:08;18.92;;;10.75;;
32138;SDS011;18644;48.700;9.210;2022-12-04T02:26:58;17.98;;;10.23;;
32138;SDS011;18644;48.700;9.210;2022-12-04T02:29:33;21.40;;;11.30;;
32138;SDS011;18644;48.700;9.210;2022-12-04T02:32:08;19.55;;;10.52;;
32138;SDS011;18644;48.700;9.210;2022-12-04T02:34:45;19.63;;;11.10;;
32138;SDS011;18644;48.700;9.210;2022-12-04T02:37:20;23.38;;;11.15;;
32138;SDS011;18644;48.700;9.210;2022-12-04T02:39:54;19.27;;;9.98;;
32138;SDS011;18644;48.700;9.210;2022-12-04T02:44:59;16.05;;;8.73;;
32138;SDS011;18644;48.700;9.210;2022-12-04T02:47:30;15.27;;;8.73;;
32138;SDS011;18644;48.700;9.210;2022-12-04T02:49:59;15.48;;;8.07;;
32138;SDS011;18644;48.700;9.210;2022-12-04T02:52:30;15.77;;;8.73;;
32138;SDS011;18644;48.700;9.210;2022-12-04T02:55:03;17.38;;;9.35;;
32138;SDS011;18644;48.700;9.210;2022-12-04T02:57:36;17.83;;;9.05;;
32138;SDS011;18644;48.700;9.210;2022-12-04T03:00:10;16.25;;;9.30;;
32138;SDS011;18644;48.700;9.210;2022-12-04T03:02:41;15.23;;;8.73;;
32138;SDS011;18644;48.700;9.210;2022-12-04T03:05:13;18.67;;;9.25;;
32138;SDS011;18644;48.700;9.210;2022-12-04T03:07:45;15.95;;;8.82;;
32138;SDS011;18644;48.700;9.210;2022-12-04T03:10:16;16.37;;;8.87;;
32138;SDS011;18644;48.700;9.210;2022-12-04T03:12:51;15.50;;;7.97;;
32138;SDS011;18644;48.700;9.210;2022-12-04T03:15:24;15.23;;;8.10;;
32138;SDS011;18644;48.700;9.210;2022-12-04T03:17:57;17.20;;;8.40;;
32138;SDS011;18644;48.700;9.210;2022-12-04T03:20:27;13.50;;;8.20;;
32138;SDS011;18644;48.700;9.210;2022-12-04T03:22:58;14.30;;;7.15;;
32138;SDS011;18644;48.700;9.210;2022-12-04T03:25:31;16.08;;;9.25;;
32138;SDS011;18644;48.700;9.210;2022-12-04T03:28:02;15.55;;;8.57;;
32138;SDS011;18644;48.700;9.210;2022-12-04T03:30:38;15.20;;;8.40;;
32138;SDS011;18644;48.700;9.210;2022-12-04T03:33:11;14.25;;;8.35;;
32138;SDS011;18644;48.700;9.210;2022-12-04T03:35:42;14.95;;;7.43;;
32138;SDS011;18644;48.700;9.210;2022-12-04T03:38:15;11.75;;;7.32;;
32138;SDS011;18644;48.700;9.210;2022-12-04T03:40:48;16.30;;;7.60;;
32138;SDS011;18644;48.700;9.210;2022-12-04T03:43:23;13.95;;;7.72;;
32138;SDS011;18644;48.700;9.210;2022-12-04T03:45:55;13.70;;;7.37;;
32138;SDS011;18644;48.700;9.210;2022-12-04T03:48:27;14.60;;;8.02;;
32138;SDS011;18644;48.700;9.210;2022-12-04T03:51:07;14.18;;;8.27;;
32138;SDS011;18644;48.700;9.210;2022-12-04T03:53:42;12.25;;;7.75;;
32138;SDS011;18644;48.700;9.210;2022-12-04T03:56:16;16.33;;;8.68;;
32138;SDS011;18644;48.700;9.210;2022-12-04T03:58:47;15.02;;;7.70;;
32138;SDS011;18644;48.700;9.210;2022-12-04T04:01:19;13.70;;;7.57;;
32138;SDS011;18644;48.700;9.210;2022-12-04T04:03:52;11.55;;;6.53;;
32138;SDS011;18644;48.700;9.210;2022-12-04T04:06:23;10.65;;;6.50;;
32138;SDS011;18644;48.700;9.210;2022-12-04T04:08:58;13.88;;;7.57;;
32138;SDS011;18644;48.700;9.210;2022-12-04T04:11:31;13.77;;;7.32;;
32138;SDS011;18644;48.700;9.210;2022-12-04T04:14:03;16.02;;;7.35;;
32138;SDS011;18644;48.700;9.210;2022-12-04T04:16:54;17.10;;;7.82;;
32138;SDS011;18644;48.700;9.210;2022-12-04T04:19:46;13.25;;;6.95;;
32138;SDS011;18644;48.700;9.210;2022-12-04T04:22:37;11.52;;;6.75;;
32138;SDS011;18644;48.700;9.210;2022-12-04T04:25:23;12.85;;;7.18;;
32138;SDS011;18644;48.700;9.210;2022-12-04T04:27:52;10.40;;;6.05;;
32138;SDS011;18644;48.700;9.210;2022-12-04T04:30:21;11.48;;;6.85;;
32138;SDS011;18644;48.700;9.210;2022-12-04T04:32:51;12.55;;;6.32;;
32138;SDS011;18644;48.700;9.210;2022-12-04T04:35:25;10.52;;;6.70;;
32138;SDS011;18644;48.700;9.210;2022-12-04T04:38:00;11.48;;;6.40;;
32138;SDS011;18644;48.700;9.210;2022-12-04T04:40:37;11.25;;;6.03;;
32138;SDS011;18644;48.700;9.210;2022-12-04T04:43:13;11.75;;;6.43;;
32138;SDS011;18644;48.700;9.210;2022-12-04T04:45:46;11.40;;;6.20;;
32138;SDS011;18644;48.700;9.210;2022-12-04T04:48:20;12.85;;;6.97;;
32138;SDS011;18644;48.700;9.210;2022-12-04T04:50:52;11.63;;;6.30;;
32138;SDS011;18644;48.700;9.210;2022-12-04T04:53:20;13.10;;;7.20;;
32138;SDS011;18644;48.700;9.210;2022-12-04T04:55:52;13.73;;;6.93;;
32138;SDS011;18644;48.700;9.210;2022-12-04T04:58:20;10.93;;;6.35;;
32138;SDS011;18644;48.700;9.210;2022-12-04T05:00:54;12.98;;;7.20;;
32138;SDS011;18644;48.700;9.210;2022-12-04T05:03:25;14.20;;;7.15;;
32138;SDS011;18644;48.700;9.210;2022-12-04T05:05:55;12.60;;;7.30;;
32138;SDS011;18644;48.700;9.210;2022-12-04T05:08:22;12.95;;;7.00;;
32138;SDS011;18644;48.700;9.210;2022-12-04T05:10:49;9.80;;;6.07;;
32138;SDS011;18644;48.700;9.210;2022-12-04T05:13:17;13.20;;;6.50;;
32138;SDS011;18644;48.700;9.210;2022-12-04T05:15:44;11.20;;;6.18;;
32138;SDS011;18644;48.700;9.210;2022-12-04T05:18:22;10.57;;;6.43;;
32138;SDS011;18644;48.700;9.210;2022-12-04T05:20:50;10.63;;;5.88;;
32138;SDS011;18644;48.700;9.210;2022-12-04T05:23:16;16.13;;;7.75;;
32138;SDS011;18644;48.700;9.210;2022-12-04T05:25:43;12.43;;;7.00;;
32138;SDS011;18644;48.700;9.210;2022-12-04T05:28:11;11.35;;;6.60;;
32138;SDS011;18644;48.700;9.210;2022-12-04T05:30:39;14.65;;;6.97;;
32138;SDS011;18644;48.700;9.210;2022-12-04T05:33:07;11.45;;;6.03;;
32138;SDS011;18644;48.700;9.210;2022-12-04T05:35:35;10.77;;;6.07;;
32138;SDS011;18644;48.700;9.210;2022-12-04T05:38:05;9.90;;;6.15;;
32138;SDS011;18644;48.700;9.210;2022-12-04T05:40:31;10.95;;;5.78;;
32138;SDS011;18644;48.700;9.210;2022-12-04T05:42:58;9.95;;;5.40;;
32138;SDS011;18644;48.700;9.210;2022-12-04T05:45:26;11.13;;;6.32;;
32138;SDS011;18644;48.700;9.210;2022-12-04T05:47:53;10.77;;;5.47;;
32138;SDS011;18644;48.700;9.210;2022-12-04T05:50:20;11.27;;;6.25;;
32138;SDS011;18644;48.700;9.210;2022-12-04T05:52:47;12.40;;;6.57;;
32138;SDS011;18644;48.700;9.210;2022-12-04T05:55:16;11.93;;;6.20;;
32138;SDS011;18644;48.700;9.210;2022-12-04T05:57:44;11.77;;;6.90;;
32138;SDS011;18644;48.700;9.210;2022-12-04T06:00:12;10.90;;;6.47;;
32138;SDS011;18644;48.700;9.210;2022-12-04T06:02:41;11.90;;;6.65;;
32138;SDS011;18644;48.700;9.210;2022-12-04T06:05:26;10.40;;;6.25;;
32138;SDS011;18644;48.700;9.210;2022-12-04T06:07:53;10.32;;;5.93;;
32138;SDS011;18644;48.700;9.210;2022-12-04T06:10:21;11.60;;;6.35;;
32138;SDS011;18644;48.700;9.210;2022-12-04T06:12:48;11.52;;;6.47;;
32138;SDS011;18644;48.700;9.210;2022-12-04T06:15:15;8.65;;;5.63;;
32138;SDS011;18644;48.700;9.210;2022-12-04T06:17:41;12.13;;;6.15;;
32138;SDS011;18644;48.700;9.210;2022-12-04T06:20:09;9.75;;;5.93;;
32138;SDS011;18644;48.700;9.210;2022-12-04T06:22:37;11.63;;;6.05;;
32138;SDS011;18644;48.700;9.210;2022-12-04T06:25:04;11.27;;;6.30;;
32138;SDS011;18644;48.700;9.210;2022-12-04T06:27:34;11.60;;;6.60;;
32138;SDS011;18644;48.700;9.210;2022-12-04T06:30:01;10.55;;;6.05;;
32138;SDS011;18644;48.700;9.210;2022-12-04T06:32:28;9.75;;;5.93;;
32138;SDS011;18644;48.700;9.210;2022-12-04T06:34:54;9.98;;;6.15;;
32138;SDS011;18644;48.700;9.210;2022-12-04T06:37:22;12.68;;;7.15;;
32138;SDS011;18644;48.700;9.210;2022-12-04T06:39:50;10.55;;;6.82;;
32138;SDS011;18644;48.700;9.210;2022-12-04T06:42:17;11.55;;;5.80;;
32138;SDS011;18644;48.700;9.210;2022-12-04T06:44:45;9.80;;;5.93;;
32138;SDS011;18644;48.700;9.210;2022-12-04T06:47:12;11.07;;;6.07;;
32138;SDS011;18644;48.700;9.210;2022-12-04T06:49:39;10.57;;;6.05;;
32138;SDS011;18644;48.700;9.210;2022-12-04T06:52:07;9.98;;;5.70;;
32138;SDS011;18644;48.700;9.210;2022-12-04T06:54:35;9.63;;;5.35;;
32138;SDS011;18644;48.700;9.210;2022-12-04T06:57:01;12.18;;;6.10;;
32138;SDS011;18644;48.700;9.210;2022-12-04T06:59:28;10.25;;;5.88;;
32138;SDS011;18644;48.700;9.210;2022-12-04T07:01:58;13.82;;;6.43;;
32138;SDS011;18644;48.700;9.210;2022-12-04T07:04:24;11.18;;;6.20;;
32138;SDS011;18644;48.700;9.210;2022-12-04T07:06:51;10.48;;;6.18;;
32138;SDS011;18644;48.700;9.210;2022-12-04T07:09:18;10.23;;;5.68;;
32138;SDS011;18644;48.700;9.210;2022-12-04T07:11:45;12.70;;;6.50;;
32138;SDS011;18644;48.700;9.210;2022-12-04T07:14:12;11.82;;;7.18;;
32138;SDS011;18644;48.700;9.210;2022-12-04T07:16:40;10.40;;;5.68;;
32138;SDS011;18644;48.700;9.210;2022-12-04T07:19:09;9.77;;;6.30;;
32138;SDS011;18644;48.700;9.210;2022-12-04T07:21:37;10.93;;;6.13;;
32138;SDS011;18644;48.700;9.210;2022-12-04T07:24:04;11.85;;;6.85;;
32138;SDS011;18644;48.700;9.210;2022-12-04T07:26:33;12.73;;;6.80;;
32138;SDS011;18644;48.700;9.210;2022-12-04T07:29:00;12.48;;;6.95;;
32138;SDS011;18644;48.700;9.210;2022-12-04T07:31:27;9.65;;;5.97;;
32138;SDS011;18644;48.700;9.210;2022-12-04T07:33:55;13.98;;;6.63;;
32138;SDS011;18644;48.700;9.210;2022-12-04T07:36:24;11.32;;;6.70;;
32138;SDS011;18644;48.700;9.210;2022-12-04T07:38:53;13.88;;;6.22;;
32138;SDS011;18644;48.700;9.210;2022-12-04T07:41:21;11.05;;;5.97;;
32138;SDS011;18644;48.700;9.210;2022-12-04T07:43:48;14.30;;;7.47;;
32138;SDS011;18644;48.700;9.210;2022-12-04T07:46:16;13.18;;;7.18;;
32138;SDS011;18644;48.700;9.210;2022-12-04T07:48:47;12.75;;;6.20;;
32138;SDS011;18644;48.700;9.210;2022-12-04T07:51:15;12.88;;;7.20;;
32138;SDS011;18644;48.700;9.210;2022-12-04T07:53:46;13.40;;;7.68;;
32138;SDS011;18644;48.700;9.210;2022-12-04T07:56:15;15.10;;;7.80;;
32138;SDS011;18644;48.700;9.210;2022-12-04T07:58:43;14.60;;;7.50;;
32138;SDS011;18644;48.700;9.210;2022-12-04T08:01:11;15.50;;;8.30;;
32138;SDS011;18644;48.700;9.210;2022-12-04T08:03:41;14.60;;;7.63;;
32138;SDS011;18644;48.700;9.210;2022-12-04T08:06:11;12.25;;;7.00;;
32138;SDS011;18644;48.700;9.210;2022-12-04T08:08:38;11.02;;;6.03;;
32138;SDS011;18644;48.700;9.210;2022-12-04T08:11:06;13.48;;;7.53;;
32138;SDS011;18644;48.700;9.210;2022-12-04T08:13:36;15.70;;;7.20;;
32138;SDS011;18644;48.700;9.210;2022-12-04T08:16:03;11.95;;;6.72;;
32138;SDS011;18644;48.700;9.210;2022-12-04T08:18:32;13.80;;;7.78;;
32138;SDS011;18644;48.700;9.210;2022-12-04T08:21:04;17.02;;;7.70;;
32138;SDS011;18644;48.700;9.210;2022-12-04T08:23:32;11.02;;;6.88;;
32138;SDS011;18644;48.700;9.210;2022-12-04T08:26:02;12.13;;;6.80;;
32138;SDS011;18644;48.700;9.210;2022-12-04T08:28:32;12.63;;;7.10;;
32138;SDS011;18644;48.700;9.210;2022-12-04T08:31:01;12.43;;;7.32;;
32138;SDS011;18644;48.700;9.210;2022-12-04T08:33:28;11.77;;;6.35;;
32138;SDS011;18644;48.700;9.210;2022-12-04T08:35:55;11.70;;;6.47;;
32138;SDS011;18644;48.700;9.210;2022-12-04T08:38:22;13.45;;;7.35;;
32138;SDS011;18644;48.700;9.210;2022-12-04T08:40:49;12.82;;;6.85;;
32138;SDS011;18644;48.700;9.210;2022-12-04T08:43:16;12.63;;;6.88;;
32138;SDS011;18644;48.700;9.210;2022-12-04T08:45:52;15.35;;;7.68;;
32138;SDS011;18644;48.700;9.210;2022-12-04T08:48:21;10.32;;;6.03;;
32138;SDS011;18644;48.700;9.210;2022-12-04T08:50:47;10.52;;;6.28;;
32138;SDS011;18644;48.700;9.210;2022-12-04T08:53:14;10.98;;;6.35;;
32138;SDS011;18644;48.700;9.210;2022-12-04T08:55:41;11.52;;;6.78;;
32138;SDS011;18644;48.700;9.210;2022-12-04T08:58:08;11.35;;;6.78;;
32138;SDS011;18644;48.700;9.210;2022-12-04T09:00:35;11.75;;;6.75;;
32138;SDS011;18644;48.700;9.210;2022-12-04T09:03:04;14.07;;;7.43;;
32138;SDS011;18644;48.700;9.210;2022-12-04T09:05:31;13.27;;;6.93;;
32138;SDS011;18644;48.700;9.210;2022-12-04T09:07:58;13.43;;;6.28;;
32138;SDS011;18644;48.700;9.210;2022-12-04T09:10:25;12.18;;;7.10;;
32138;SDS011;18644;48.700;9.210;2022-12-04T09:12:52;11.90;;;7.35;;
32138;SDS011;18644;48.700;9.210;2022-12-04T09:15:19;15.80;;;7.93;;
32138;SDS011;18644;48.700;9.210;2022-12-04T09:17:46;15.45;;;8.43;;
32138;SDS011;18644;48.700;9.210;2022-12-04T09:20:14;14.63;;;8.07;;
32138;SDS011;18644;48.700;9.210;2022-12-04T09:22:41;13.88;;;7.43;;
32138;SDS011;18644;48.700;9.210;2022-12-04T09:25:08;15.55;;;8.35;;
32138;SDS011;18644;48.700;9.210;2022-12-04T09:27:36;12.55;;;7.30;;
32138;SDS011;18644;48.700;9.210;2022-12-04T09:30:05;11.32;;;7.22;;
32138;SDS011;18644;48.700;9.210;2022-12-04T09:32:34;13.30;;;7.35;;
32138;SDS011;18644;48.700;9.210;2022-12-04T09:35:00;13.20;;;7.32;;
32138;SDS011;18644;48.700;9.210;2022-12-04T09:37:29;11.75;;;6.55;;
32138;SDS011;18644;48.700;9.210;2022-12-04T09:39:57;13.30;;;7.50;;
32138;SDS011;18644;48.700;9.210;2022-12-04T09:42:28;11.95;;;7.03;;
32138;SDS011;18644;48.700;9.210;2022-12-04T09:45:06;15.32;;;7.60;;
32138;SDS011;18644;48.700;9.210;2022-12-04T09:47:39;13.73;;;8.00;;
32138;SDS011;18644;48.700;9.210;2022-12-04T09:50:11;14.03;;;7.67;;
32138;SDS011;18644;48.700;9.210;2022-12-04T09:52:51;12.85;;;7.38;;
32138;SDS011;18644;48.700;9.210;2022-12-04T09:55:22;14.15;;;7.97;;
32138;SDS011;18644;48.700;9.210;2022-12-04T09:57:54;14.40;;;7.15;;
32138;SDS011;18644;48.700;9.210;2022-12-04T10:00:25;13.75;;;8.35;;
32138;SDS011;18644;48.700;9.210;2022-12-04T10:02:56;13.75;;;7.55;;
32138;SDS011;18644;48.700;9.210;2022-12-04T10:05:32;12.95;;;7.32;;
32138;SDS011;18644;48.700;9.210;2022-12-04T10:08:15;13.20;;;7.88;;
32138;SDS011;18644;48.700;9.210;2022-12-04T10:10:47;18.85;;;7.95;;
32138;SDS011;18644;48.700;9.210;2022-12-04T10:13:35;16.25;;;8.60;;
32138;SDS011;18644;48.700;9.210;2022-12-04T10:16:30;13.40;;;7.95;;
32138;SDS011;18644;48.700;9.210;2022-12-04T10:19:08;14.27;;;7.78;;
32138;SDS011;18644;48.700;9.210;2022-12-04T10:21:44;17.63;;;8.95;;
32138;SDS011;18644;48.700;9.210;2022-12-04T10:24:27;13.80;;;7.78;;
32138;SDS011;18644;48.700;9.210;2022-12-04T10:27:08;12.00;;;7.38;;
32138;SDS011;18644;48.700;9.210;2022-12-04T10:29:42;15.52;;;8.77;;
32138;SDS011;18644;48.700;9.210;2022-12-04T10:32:16;14.40;;;8.55;;
32138;SDS011;18644;48.700;9.210;2022-12-04T10:34:47;15.18;;;9.52;;
32138;SDS011;18644;48.700;9.210;2022-12-04T10:37:17;13.85;;;8.20;;
32138;SDS011;18644;48.700;9.210;2022-12-04T10:39:48;14.85;;;8.43;;
32138;SDS011;18644;48.700;9.210;2022-12-04T10:42:22;13.95;;;8.40;;
32138;SDS011;18644;48.700;9.210;2022-12-04T10:44:55;15.88;;;8.90;;
32138;SDS011;18644;48.700;9.210;2022-12-04T10:47:22;15.55;;;9.23;;
32138;SDS011;18644;48.700;9.210;2022-12-04T10:49:53;14.52;;;8.85;;
32138;SDS011;18644;48.700;9.210;2022-12-04T10:52:25;16.05;;;9.77;;
32138;SDS011;18644;48.700;9.210;2022-12-04T10:54:54;18.00;;;10.30;;
32138;SDS011;18644;48.700;9.210;2022-12-04T10:57:33;14.57;;;8.52;;
32138;SDS011;18644;48.700;9.210;2022-12-04T11:00:03;14.35;;;8.93;;
32138;SDS011;18644;48.700;9.210;2022-12-04T11:02:51;17.35;;;8.63;;
32138;SDS011;18644;48.700;9.210;2022-12-04T11:05:24;13.95;;;8.80;;
32138;SDS011;18644;48.700;9.210;2022-12-04T11:07:55;14.00;;;8.55;;
32138;SDS011;18644;48.700;9.210;2022-12-04T11:10:26;15.38;;;8.98;;
32138;SDS011;18644;48.700;9.210;2022-12-04T11:13:01;18.20;;;9.75;;
32138;SDS011;18644;48.700;9.210;2022-12-04T11:15:33;15.02;;;9.43;;
32138;SDS011;18644;48.700;9.210;2022-12-04T11:18:08;18.58;;;10.27;;
32138;SDS011;18644;48.700;9.210;2022-12-04T11:20:42;15.05;;;8.82;;
32138;SDS011;18644;48.700;9.210;2022-12-04T11:23:15;17.20;;;9.82;;
32138;SDS011;18644;48.700;9.210;2022-12-04T11:25:45;18.05;;;9.75;;
32138;SDS011;18644;48.700;9.210;2022-12-04T11:28:15;15.65;;;9.27;;
32138;SDS011;18644;48.700;9.210;2022-12-04T11:30:46;20.38;;;10.40;;
32138;SDS011;18644;48.700;9.210;2022-12-04T11:33:16;18.17;;;9.88;;
32138;SDS011;18644;48.700;9.210;2022-12-04T11:35:51;17.67;;;9.05;;
32138;SDS011;18644;48.700;9.210;2022-12-04T11:38:22;16.60;;;8.88;;
32138;SDS011;18644;48.700;9.210;2022-12-04T11:40:54;15.57;;;8.45;;
32138;SDS011;18644;48.700;9.210;2022-12-04T11:43:25;17.73;;;9.02;;
32138;SDS011;18644;48.700;9.210;2022-12-04T11:45:54;18.25;;;9.48;;
32138;SDS011;18644;48.700;9.210;2022-12-04T11:48:24;17.85;;;9.30;;
32138;SDS011;18644;48.700;9.210;2022-12-04T11:50:53;15.90;;;8.48;;
32138;SDS011;18644;48.700;9.210;2022-12-04T11:53:36;17.55;;;8.60;;
32138;SDS011;18644;48.700;9.210;2022-12-04T11:56:16;14.48;;;8.23;;
32138;SDS011;18644;48.700;9.210;2022-12-04T11:58:56;14.10;;;7.82;;
32138;SDS011;18644;48.700;9.210;2022-12-04T12:01:59;14.73;;;8.52;;
32138;SDS011;18644;48.700;9.210;2022-12-04T12:04:49;13.77;;;7.80;;
32138;SDS011;18644;48.700;9.210;2022-12-04T12:07:40;16.92;;;8.63;;
32138;SDS011;18644;48.700;9.210;2022-12-04T12:10:15;14.93;;;8.70;;
32138;SDS011;18644;48.700;9.210;2022-12-04T12:12:54;16.30;;;8.77;;
32138;SDS011;18644;48.700;9.210;2022-12-04T12:15:32;15.57;;;8.75;;
32138;SDS011;18644;48.700;9.210;2022-12-04T12:18:16;15.27;;;8.43;;
32138;SDS011;18644;48.700;9.210;2022-12-04T12:21:09;14.68;;;7.60;;
32138;SDS011;18644;48.700;9.210;2022-12-04T12:23:47;16.77;;;8.40;;
32138;SDS011;18644;48.700;9.210;2022-12-04T12:26:29;14.65;;;8.07;;
32138;SDS011;18644;48.700;9.210;2022-12-04T12:29:11;13.88;;;7.63;;
32138;SDS011;18644;48.700;9.210;2022-12-04T12:31:56;14.00;;;7.80;;
32138;SDS011;18644;48.700;9.210;2022-12-04T12:34:35;14.00;;;8.02;;
32138;SDS011;18644;48.700;9.210;2022-12-04T12:37:08;12.50;;;6.80;;
32138;SDS011;18644;48.700;9.210;2022-12-04T12:39:44;13.07;;;7.53;;
32138;SDS011;18644;48.700;9.210;2022-12-04T12:42:16;11.85;;;7.10;;
32138;SDS011;18644;48.700;9.210;2022-12-04T12:44:51;15.63;;;8.20;;
32138;SDS011;18644;48.700;9.210;2022-12-04T12:47:26;14.35;;;8.00;;
32138;SDS011;18644;48.700;9.210;2022-12-04T12:49:58;16.92;;;8.20;;
32138;SDS011;18644;48.700;9.210;2022-12-04T12:52:31;14.02;;;8.05;;
32138;SDS011;18644;48.700;9.210;2022-12-04T12:55:12;15.85;;;8.05;;
32138;SDS011;18644;48.700;9.210;2022-12-04T12:57:45;17.70;;;8.95;;
32138;SDS011;18644;48.700;9.210;2022-12-04T13:00:17;19.77;;;9.18;;
32138;SDS011;18644;48.700;9.210;2022-12-04T13:02:46;18.58;;;9.35;;
32138;SDS011;18644;48.700;9.210;2022-12-04T13:05:18;17.17;;;8.77;;
32138;SDS011;18644;48.700;9.210;2022-12-04T13:07:53;16.60;;;8.70;;
32138;SDS011;18644;48.700;9.210;2022-12-04T13:10:27;13.02;;;7.20;;
32138;SDS011;18644;48.700;9.210;2022-12-04T13:13:01;13.93;;;7.75;;
32138;SDS011;18644;48.700;9.210;2022-12-04T13:18:04;13.02;;;7.22;;
32138;SDS011;18644;48.700;9.210;2022-12-04T13:20:36;13.07;;;7.22;;
32138;SDS011;18644;48.700;9.210;2022-12-04T13:23:16;13.77;;;7.63;;
32138;SDS011;18644;48.700;9.210;2022-12-04T13:26:01;11.85;;;6.78;;
32138;SDS011;18644;48.700;9.210;2022-12-04T13:28:40;13.98;;;7.28;;
32138;SDS011;18644;48.700;9.210;2022-12-04T13:31:21;12.13;;;6.45;;
32138;SDS011;18644;48.700;9.210;2022-12-04T13:43:12;16.73;;;8.70;;
32138;SDS011;18644;48.700;9.210;2022-12-04T13:45:48;15.35;;;8.73;;
32138;SDS011;18644;48.700;9.210;2022-12-04T13:48:30;18.17;;;9.57;;
32138;SDS011;18644;48.700;9.210;2022-12-04T13:51:05;15.63;;;8.55;;
32138;SDS011;18644;48.700;9.210;2022-12-04T13:53:58;15.93;;;9.38;;
32138;SDS011;18644;48.700;9.210;2022-12-04T13:56:28;14.95;;;8.27;;
32138;SDS011;18644;48.700;9.210;2022-12-04T13:59:00;13.43;;;7.25;;
32138;SDS011;18644;48.700;9.210;2022-12-04T14:01:33;17.80;;;8.20;;
32138;SDS011;18644;48.700;9.210;2022-12-04T14:04:05;12.63;;;6.53;;
32138;SDS011;18644;48.700;9.210;2022-12-04T14:06:34;17.02;;;8.70;;
32138;SDS011;18644;48.700;9.210;2022-12-04T14:09:05;17.60;;;9.80;;
32138;SDS011;18644;48.700;9.210;2022-12-04T14:11:44;18.42;;;9.45;;
32138;SDS011;18644;48.700;9.210;2022-12-04T14:14:20;16.38;;;9.50;;
32138;SDS011;18644;48.700;9.210;2022-12-04T14:16:53;15.82;;;9.35;;
32138;SDS011;18644;48.700;9.210;2022-12-04T14:19:30;17.27;;;9.20;;
32138;SDS011;18644;48.700;9.210;2022-12-04T14:21:59;15.75;;;8.70;;
32138;SDS011;18644;48.700;9.210;2022-12-04T14:24:28;17.88;;;9.55;;
32138;SDS011;18644;48.700;9.210;2022-12-04T14:27:00;16.23;;;8.70;;
32138;SDS011;18644;48.700;9.210;2022-12-04T14:29:33;15.82;;;8.85;;
32138;SDS011;18644;48.700;9.210;2022-12-04T14:32:12;18.75;;;9.25;;
32138;SDS011;18644;48.700;9.210;2022-12-04T14:34:43;18.77;;;9.85;;
32138;SDS011;18644;48.700;9.210;2022-12-04T14:37:16;14.90;;;8.15;;
32138;SDS011;18644;48.700;9.210;2022-12-04T14:39:48;17.55;;;10.13;;
32138;SDS011;18644;48.700;9.210;2022-12-04T14:42:19;17.25;;;9.98;;
32138;SDS011;18644;48.700;9.210;2022-12-04T14:44:51;16.92;;;9.20;;
32138;SDS011;18644;48.700;9.210;2022-12-04T14:47:24;16.25;;;8.90;;
32138;SDS011;18644;48.700;9.210;2022-12-04T14:50:10;18.65;;;8.88;;
32138;SDS011;18644;48.700;9.210;2022-12-04T14:52:48;17.23;;;9.68;;
32138;SDS011;18644;48.700;9.210;2022-12-04T14:55:25;15.55;;;8.50;;
32138;SDS011;18644;48.700;9.210;2022-12-04T14:58:02;15.65;;;8.95;;
32138;SDS011;18644;48.700;9.210;2022-12-04T15:00:53;14.45;;;8.55;;
32138;SDS011;18644;48.700;9.210;2022-12-04T15:03:22;15.85;;;8.40;;
32138;SDS011;18644;48.700;9.210;2022-12-04T15:06:00;15.60;;;8.95;;
32138;SDS011;18644;48.700;9.210;2022-12-04T15:08:29;16.98;;;9.15;;
32138;SDS011;18644;48.700;9.210;2022-12-04T15:10:56;17.10;;;9.38;;
32138;SDS011;18644;48.700;9.210;2022-12-04T15:13:41;17.60;;;9.20;;
32138;SDS011;18644;48.700;9.210;2022-12-04T15:16:08;18.70;;;9.48;;